createdAt,value
2018-06-25T00:02:12.680Z,2.71
2018-06-25T00:08:07.735Z,2.8
2018-06-25T00:14:02.723Z,2.66
2018-06-25T00:19:57.681Z,2.62
2018-06-25T00:25:52.730Z,2.63
2018-06-25T00:31:47.701Z,2.5
2018-06-25T00:37:42.723Z,2.83
2018-06-25T00:43:37.706Z,2.48
2018-06-25T00:49:32.729Z,2.35
2018-06-25T00:55:27.743Z,2.46
2018-06-25T01:01:22.750Z,2.52
2018-06-25T01:07:17.700Z,2.6
2018-06-25T01:13:12.697Z,2.43
2018-06-25T01:19:07.766Z,2.79
2018-06-25T01:25:02.743Z,2.14
2018-06-25T01:30:57.745Z,2.63
2018-06-25T01:36:52.776Z,2.63
2018-06-25T01:42:47.725Z,2.51
2018-06-25T01:48:42.780Z,2.44
2018-06-25T01:54:37.778Z,2.66
2018-06-25T02:00:32.767Z,2.28
2018-06-25T02:06:27.808Z,2.68
2018-06-25T02:12:22.762Z,2.67
2018-06-25T02:18:17.764Z,2.67
2018-06-25T02:24:12.803Z,2.6
2018-06-25T02:30:07.775Z,2.5
2018-06-25T02:36:02.792Z,2.7
2018-06-25T02:41:57.790Z,2.69
2018-06-25T02:47:52.773Z,2.67
2018-06-25T02:53:47.810Z,2.85
2018-06-25T02:59:42.785Z,2.66
2018-06-25T03:05:37.772Z,2.54
2018-06-25T03:11:32.800Z,2.4
2018-06-25T03:17:27.832Z,2.66
2018-06-25T03:23:22.837Z,2.69
2018-06-25T03:29:17.825Z,2.38
2018-06-25T03:35:12.829Z,2.66
2018-06-25T03:41:07.837Z,2.61
2018-06-25T03:47:02.853Z,2.63
2018-06-25T03:52:57.812Z,2.43
2018-06-25T03:58:52.847Z,2.44
2018-06-25T04:04:47.851Z,2.53
2018-06-25T04:10:42.851Z,2.34
2018-06-25T04:16:37.806Z,3.06
2018-06-25T04:22:32.851Z,2.72
2018-06-25T04:28:27.874Z,2.73
2018-06-25T04:34:22.838Z,2.8
2018-06-25T04:40:17.957Z,2.55
2018-06-25T04:46:12.932Z,2.47
2018-06-25T04:52:07.909Z,2.67
2018-06-25T04:58:02.857Z,2.49
2018-06-25T05:03:57.847Z,2.39
2018-06-25T05:09:52.869Z,3.02
2018-06-25T05:15:47.900Z,2.84
2018-06-25T05:21:42.916Z,2.71
2018-06-25T05:27:37.887Z,2.62
2018-06-25T05:33:32.882Z,2.63
2018-06-25T05:39:27.910Z,2.56
2018-06-25T05:45:22.932Z,2.85
2018-06-25T05:51:17.861Z,2.51
2018-06-25T05:57:12.908Z,2.53
2018-06-25T06:03:07.896Z,2.4
2018-06-25T06:09:02.961Z,2.58
2018-06-25T06:14:57.928Z,2.33
2018-06-25T06:20:52.912Z,2.67
2018-06-25T06:26:47.935Z,2.63
2018-06-25T06:32:42.944Z,2.72
2018-06-25T06:38:37.952Z,2.06
2018-06-25T06:44:33.005Z,2.41
2018-06-25T06:50:27.921Z,2.22
2018-06-25T06:56:22.924Z,2.14
2018-06-25T07:02:17.930Z,2.3
2018-06-25T07:08:12.933Z,2.42
2018-06-25T07:14:07.923Z,2.19
2018-06-25T07:20:02.947Z,2.5
2018-06-25T07:25:57.954Z,2.44
2018-06-25T07:31:52.972Z,2.31
2018-06-25T07:37:48.018Z,2.1
2018-06-25T07:43:42.970Z,2.13
2018-06-25T07:49:38.003Z,2.45
2018-06-25T07:55:33.065Z,2.29
2018-06-25T08:01:27.988Z,2.23
2018-06-25T08:07:23.080Z,2.25
2018-06-25T08:13:17.968Z,2.2
2018-06-25T08:19:13.001Z,2.46
2018-06-25T08:25:08.040Z,2.51
2018-06-25T08:31:03.022Z,2.29
2018-06-25T08:36:58.072Z,1.83
2018-06-25T08:42:53.078Z,1.62
2018-06-25T08:48:48.033Z,1.85
2018-06-25T08:54:42.992Z,1.59
2018-06-25T09:00:38.035Z,1.18
2018-06-25T09:06:33.093Z,1.02
2018-06-25T09:12:28.026Z,1.04
2018-06-25T09:18:23.024Z,0.91
2018-06-25T09:24:18.027Z,1.23
2018-06-25T09:30:13.068Z,0.98
2018-06-25T09:36:08.043Z,0.86
2018-06-25T09:42:03.080Z,1.23
2018-06-25T09:47:58.067Z,1.1
2018-06-25T09:53:53.099Z,0.96
2018-06-25T09:59:48.119Z,1.13
2018-06-25T10:05:43.082Z,1.21
2018-06-25T10:11:38.071Z,1.48
2018-06-25T10:17:33.151Z,1.5
2018-06-25T10:23:28.123Z,1.23
2018-06-25T10:29:23.139Z,1.4
2018-06-25T10:35:18.114Z,1.89
2018-06-25T10:41:13.140Z,1.55
2018-06-25T10:47:08.095Z,1.52
2018-06-25T10:53:03.170Z,0.96
2018-06-25T10:58:58.134Z,0.74
2018-06-25T11:04:53.163Z,0.45
2018-06-25T11:10:48.164Z,0.49
2018-06-25T11:16:43.126Z,0.48
2018-06-25T11:22:38.130Z,0.47
2018-06-25T11:28:33.164Z,0.52
2018-06-25T11:34:28.162Z,0.92
2018-06-25T11:40:23.245Z,0.62
2018-06-25T11:46:18.217Z,0.56
2018-06-25T11:52:13.137Z,0.5
2018-06-25T11:58:08.196Z,0.36
2018-06-25T12:04:03.152Z,0.34
2018-06-25T12:09:58.167Z,0.53
2018-06-25T12:15:53.164Z,1.74
2018-06-25T12:21:48.179Z,1.78
2018-06-25T12:27:43.222Z,1.79
2018-06-25T12:33:38.191Z,1.51
2018-06-25T12:39:33.221Z,1.08
2018-06-25T12:45:28.176Z,1.13
2018-06-25T12:51:23.209Z,0.92
2018-06-25T12:57:18.216Z,1.17
2018-06-25T13:03:13.281Z,1.12
2018-06-25T13:09:08.272Z,1.45
2018-06-25T13:15:03.304Z,1.12
2018-06-25T13:20:58.237Z,1.02
2018-06-25T13:26:53.230Z,0.67
2018-06-25T13:32:48.261Z,0.65
2018-06-25T13:38:43.319Z,0.43
2018-06-25T13:44:38.270Z,0.32
2018-06-25T13:50:33.269Z,0.53
2018-06-25T13:56:28.257Z,0.67
2018-06-25T14:02:23.263Z,0.89
2018-06-25T14:08:18.260Z,0.8
2018-06-25T14:14:13.292Z,0.94
2018-06-25T14:20:08.310Z,0.93
2018-06-25T14:26:03.294Z,0.86
2018-06-25T14:31:58.285Z,0.49
2018-06-25T14:37:53.299Z,0.54
2018-06-25T14:43:48.344Z,0.47
2018-06-25T14:49:43.260Z,0.52
2018-06-25T14:55:38.318Z,0.35
2018-06-25T15:01:33.326Z,0.27
2018-06-25T15:07:28.272Z,0.32
2018-06-25T15:13:23.313Z,0.39
2018-06-25T15:19:18.279Z,0.53
2018-06-25T15:25:13.355Z,0.65
2018-06-25T15:31:08.336Z,0.44
2018-06-25T15:37:03.312Z,0.38
2018-06-25T15:42:58.313Z,0.52
2018-06-25T15:48:53.337Z,0.43
2018-06-25T15:54:48.358Z,0.47
2018-06-25T16:00:43.323Z,0.49
2018-06-25T16:06:38.419Z,0.49
2018-06-25T16:12:33.354Z,0.41
2018-06-25T16:18:28.351Z,0.37
2018-06-25T16:24:23.353Z,0.42
2018-06-25T16:30:18.364Z,0.56
2018-06-25T16:36:13.456Z,0.57
2018-06-25T16:42:08.379Z,0.62
2018-06-25T16:48:03.404Z,0.58
2018-06-25T16:53:58.386Z,0.63
2018-06-25T16:59:53.426Z,0.74
2018-06-25T17:05:48.440Z,0.7
2018-06-25T17:11:43.428Z,0.78
2018-06-25T17:17:38.391Z,0.74
2018-06-25T17:23:33.407Z,0.71
2018-06-25T17:29:28.430Z,0.74
2018-06-25T17:35:23.412Z,0.7
2018-06-25T17:41:18.428Z,0.83
2018-06-25T17:47:13.449Z,0.92
2018-06-25T17:53:08.416Z,0.97
2018-06-25T17:59:03.433Z,0.94
2018-06-25T18:04:58.446Z,0.99
2018-06-25T18:10:53.455Z,0.88
2018-06-25T18:16:48.434Z,1.12
2018-06-25T18:22:43.442Z,1.08
2018-06-25T18:28:38.447Z,0.95
2018-06-25T18:34:33.443Z,1.04
2018-06-25T18:40:28.458Z,1.06
2018-06-25T18:46:23.490Z,0.99
2018-06-25T18:52:18.462Z,1.04
2018-06-25T18:58:13.447Z,1.11
2018-06-25T19:04:08.458Z,1.04
2018-06-25T19:10:03.505Z,1.03
2018-06-25T19:15:58.500Z,0.95
2018-06-25T19:21:53.523Z,1.15
2018-06-25T19:27:48.510Z,0.97
2018-06-25T19:33:43.469Z,1.06
2018-06-25T19:39:38.507Z,1.26
2018-06-25T19:45:33.501Z,1.33
2018-06-25T19:51:28.484Z,1.09
2018-06-25T19:57:23.508Z,0.99
2018-06-25T20:03:18.524Z,0.96
2018-06-25T20:09:13.532Z,1.03
2018-06-25T20:15:08.650Z,1.01
2018-06-25T20:21:03.495Z,0.87
2018-06-25T20:26:58.723Z,1.45
2018-06-25T20:32:54.072Z,0.94
2018-06-25T20:38:48.507Z,1.11
2018-06-25T20:44:43.531Z,1.2
2018-06-25T20:50:38.573Z,0.95
2018-06-25T20:56:33.536Z,0.94
2018-06-25T21:02:28.685Z,1.02
2018-06-25T21:08:23.527Z,0.95
2018-06-25T21:14:18.572Z,1.07
2018-06-25T21:20:13.612Z,1.05
2018-06-25T21:26:08.619Z,1.22
2018-06-25T21:32:03.568Z,1.14
2018-06-25T21:37:58.656Z,1.22
2018-06-25T21:43:53.593Z,1.27
2018-06-25T21:49:48.576Z,1.3
2018-06-25T21:55:43.626Z,1.13
2018-06-25T22:01:38.646Z,1.2
2018-06-25T22:07:33.635Z,1.22
2018-06-25T22:13:28.564Z,1.23
2018-06-25T22:19:23.638Z,1.17
2018-06-25T22:25:18.667Z,1.08
2018-06-25T22:31:13.660Z,1.19
2018-06-25T22:37:08.636Z,1.14
2018-06-25T22:43:03.645Z,1.17
2018-06-25T22:48:58.646Z,1.45
2018-06-25T22:54:53.648Z,1.11
2018-06-25T23:00:48.697Z,1.33
2018-06-25T23:06:43.653Z,1.55
2018-06-25T23:12:38.664Z,1.37
2018-06-25T23:18:33.653Z,1.43
2018-06-25T23:24:28.672Z,1.31
2018-06-25T23:30:23.682Z,1.32
2018-06-25T23:36:18.697Z,1.36
2018-06-25T23:42:13.685Z,1.25
2018-06-25T23:48:08.694Z,1.4
2018-06-25T23:54:03.696Z,1.18
2018-06-25T23:59:58.668Z,1.42
